sensor_id;sensor_type;location;lat;lon;timestamp;pressure;altitude;pressure_sealevel;temperature;humidity
37202;BME280;37799;52.390;6.136;2023-05-12T00:01:36;101671.34;;;11.65;100.00
37202;BME280;37799;52.390;6.136;2023-05-12T00:04:01;101673.19;;;11.60;100.00
37202;BME280;37799;52.390;6.136;2023-05-12T00:06:26;101675.91;;;11.51;100.00
37202;BME280;37799;52.390;6.136;2023-05-12T00:08:52;101666.25;;;11.61;100.00
37202;BME280;37799;52.390;6.136;2023-05-12T00:11:17;101670.19;;;11.83;100.00
37202;BME280;37799;52.390;6.136;2023-05-12T00:13:43;101664.34;;;11.69;100.00
37202;BME280;37799;52.390;6.136;2023-05-12T00:16:08;101662.78;;;11.62;100.00
37202;BME280;37799;52.390;6.136;2023-05-12T00:18:34;101657.47;;;11.68;100.00
37202;BME280;37799;52.390;6.136;2023-05-12T00:20:59;101659.50;;;11.50;100.00
37202;BME280;37799;52.390;6.136;2023-05-12T00:23:24;101664.78;;;11.46;100.00
37202;BME280;37799;52.390;6.136;2023-05-12T00:25:49;101662.94;;;11.51;100.00
37202;BME280;37799;52.390;6.136;2023-05-12T00:28:16;101660.28;;;11.54;100.00
37202;BME280;37799;52.390;6.136;2023-05-12T00:30:41;101659.53;;;11.49;100.00
37202;BME280;37799;52.390;6.136;2023-05-12T00:33:07;101655.97;;;11.55;100.00
37202;BME280;37799;52.390;6.136;2023-05-12T00:35:32;101652.59;;;11.49;100.00
37202;BME280;37799;52.390;6.136;2023-05-12T00:37:57;101652.53;;;11.52;100.00
37202;BME280;37799;52.390;6.136;2023-05-12T00:40:22;101656.94;;;11.49;100.00
37202;BME280;37799;52.390;6.136;2023-05-12T00:42:48;101653.53;;;11.44;100.00
37202;BME280;37799;52.390;6.136;2023-05-12T00:45:14;101652.66;;;11.46;100.00
37202;BME280;37799;52.390;6.136;2023-05-12T00:47:39;101654.41;;;11.43;100.00
37202;BME280;37799;52.390;6.136;2023-05-12T00:50:05;101656.09;;;11.47;100.00
37202;BME280;37799;52.390;6.136;2023-05-12T00:52:32;101652.66;;;11.46;100.00
37202;BME280;37799;52.390;6.136;2023-05-12T00:54:59;101653.34;;;11.56;100.00
37202;BME280;37799;52.390;6.136;2023-05-12T00:57:25;101648.13;;;11.59;100.00
37202;BME280;37799;52.390;6.136;2023-05-12T00:59:52;101645.69;;;11.48;100.00
37202;BME280;37799;52.390;6.136;2023-05-12T01:02:18;101653.44;;;11.51;100.00
37202;BME280;37799;52.390;6.136;2023-05-12T01:04:43;101649.09;;;11.52;100.00
37202;BME280;37799;52.390;6.136;2023-05-12T01:07:16;101645.69;;;11.48;100.00
37202;BME280;37799;52.390;6.136;2023-05-12T01:09:42;101642.97;;;11.56;100.00
37202;BME280;37799;52.390;6.136;2023-05-12T01:12:07;101646.47;;;11.53;100.00
37202;BME280;37799;52.390;6.136;2023-05-12T01:14:32;101640.44;;;11.53;100.00
37202;BME280;37799;52.390;6.136;2023-05-12T01:17:00;101635.34;;;11.45;100.00
37202;BME280;37799;52.390;6.136;2023-05-12T01:19:45;101635.22;;;11.55;100.00
37202;BME280;37799;52.390;6.136;2023-05-12T01:22:11;101635.06;;;11.64;100.00
37202;BME280;37799;52.390;6.136;2023-05-12T01:24:58;101640.31;;;11.61;100.00
37202;BME280;37799;52.390;6.136;2023-05-12T01:27:24;101638.34;;;11.73;100.00
37202;BME280;37799;52.390;6.136;2023-05-12T01:29:51;101641.09;;;11.64;100.00
37202;BME280;37799;52.390;6.136;2023-05-12T01:32:18;101646.38;;;11.58;100.00
37202;BME280;37799;52.390;6.136;2023-05-12T01:34:45;101648.22;;;11.53;100.00
37202;BME280;37799;52.390;6.136;2023-05-12T01:37:11;101643.78;;;11.58;100.00
37202;BME280;37799;52.390;6.136;2023-05-12T01:39:36;101641.28;;;11.53;100.00
37202;BME280;37799;52.390;6.136;2023-05-12T01:42:05;101646.63;;;11.46;100.00
37202;BME280;37799;52.390;6.136;2023-05-12T01:44:31;101648.31;;;11.45;100.00
37202;BME280;37799;52.390;6.136;2023-05-12T01:46:56;101651.69;;;11.52;100.00
37202;BME280;37799;52.390;6.136;2023-05-12T01:49:21;101650.75;;;11.56;100.00
37202;BME280;37799;52.390;6.136;2023-05-12T01:51:47;101655.69;;;11.70;100.00
37202;BME280;37799;52.390;6.136;2023-05-12T01:54:12;101656.66;;;11.64;100.00
37202;BME280;37799;52.390;6.136;2023-05-12T01:56:38;101651.47;;;11.64;100.00
37202;BME280;37799;52.390;6.136;2023-05-12T01:59:03;101649.72;;;11.66;100.00
37202;BME280;37799;52.390;6.136;2023-05-12T02:01:29;101649.72;;;11.66;100.00
37202;BME280;37799;52.390;6.136;2023-05-12T02:03:56;101656.53;;;11.70;100.00
37202;BME280;37799;52.390;6.136;2023-05-12T02:06:22;101652.34;;;11.65;100.00
37202;BME280;37799;52.390;6.136;2023-05-12T02:08:47;101660.84;;;11.71;100.00
37202;BME280;37799;52.390;6.136;2023-05-12T02:11:14;101657.47;;;11.68;100.00
37202;BME280;37799;52.390;6.136;2023-05-12T02:13:40;101660.84;;;11.71;100.00
37202;BME280;37799;52.390;6.136;2023-05-12T02:16:05;101661.72;;;11.70;100.00
37202;BME280;37799;52.390;6.136;2023-05-12T02:18:31;101661.72;;;11.73;100.00
37202;BME280;37799;52.390;6.136;2023-05-12T02:20:58;101656.63;;;11.66;100.00
37202;BME280;37799;52.390;6.136;2023-05-12T02:23:23;101669.50;;;11.73;100.00
37202;BME280;37799;52.390;6.136;2023-05-12T02:25:49;101660.09;;;11.66;100.00
37202;BME280;37799;52.390;6.136;2023-05-12T02:28:14;101660.00;;;11.71;100.00
37202;BME280;37799;52.390;6.136;2023-05-12T02:30:47;101654.66;;;11.81;100.00
37202;BME280;37799;52.390;6.136;2023-05-12T02:33:16;101659.94;;;11.75;100.00
37202;BME280;37799;52.390;6.136;2023-05-12T02:35:43;101657.34;;;11.75;100.00
37202;BME280;37799;52.390;6.136;2023-05-12T02:38:08;101652.19;;;11.74;100.00
37202;BME280;37799;52.390;6.136;2023-05-12T02:40:34;101653.88;;;11.75;100.00
37202;BME280;37799;52.390;6.136;2023-05-12T02:42:59;101657.28;;;11.80;100.00
37202;BME280;37799;52.390;6.136;2023-05-12T02:45:25;101651.97;;;11.88;100.00
37202;BME280;37799;52.390;6.136;2023-05-12T02:47:50;101653.81;;;11.78;100.00
37202;BME280;37799;52.390;6.136;2023-05-12T02:50:16;101652.09;;;11.80;100.00
37202;BME280;37799;52.390;6.136;2023-05-12T02:52:41;101648.47;;;11.89;100.00
37202;BME280;37799;52.390;6.136;2023-05-12T02:55:07;101656.38;;;11.82;100.00
37202;BME280;37799;52.390;6.136;2023-05-12T02:57:32;101651.16;;;11.82;100.00
37202;BME280;37799;52.390;6.136;2023-05-12T02:59:59;101658.94;;;11.84;100.00
37202;BME280;37799;52.390;6.136;2023-05-12T03:02:24;101651.97;;;11.88;100.00
37202;BME280;37799;52.390;6.136;2023-05-12T03:04:49;101649.56;;;11.75;100.00
37202;BME280;37799;52.390;6.136;2023-05-12T03:07:15;101654.56;;;11.88;100.00
37202;BME280;37799;52.390;6.136;2023-05-12T03:09:40;101649.28;;;11.92;100.00
37202;BME280;37799;52.390;6.136;2023-05-12T03:12:06;101647.50;;;11.94;100.00
37202;BME280;37799;52.390;6.136;2023-05-12T03:14:31;101639.75;;;11.93;100.00
37202;BME280;37799;52.390;6.136;2023-05-12T03:16:57;101640.66;;;11.90;100.00
37202;BME280;37799;52.390;6.136;2023-05-12T03:19:22;101630.25;;;11.92;100.00
37202;BME280;37799;52.390;6.136;2023-05-12T03:21:48;101634.66;;;11.88;100.00
37202;BME280;37799;52.390;6.136;2023-05-12T03:24:13;101643.34;;;11.84;100.00
37202;BME280;37799;52.390;6.136;2023-05-12T03:26:39;101639.66;;;11.97;100.00
37202;BME280;37799;52.390;6.136;2023-05-12T03:29:05;101635.41;;;11.93;100.00
37202;BME280;37799;52.390;6.136;2023-05-12T03:31:30;101637.06;;;11.99;100.00
37202;BME280;37799;52.390;6.136;2023-05-12T03:33:55;101643.97;;;11.98;100.00
37202;BME280;37799;52.390;6.136;2023-05-12T03:36:21;101646.53;;;12.00;100.00
37202;BME280;37799;52.390;6.136;2023-05-12T03:38:46;101640.63;;;11.92;100.00
37202;BME280;37799;52.390;6.136;2023-05-12T03:41:11;101641.50;;;11.92;100.00
37202;BME280;37799;52.390;6.136;2023-05-12T03:43:37;101645.47;;;12.10;100.00
37202;BME280;37799;52.390;6.136;2023-05-12T03:46:02;101640.38;;;12.05;100.00
37202;BME280;37799;52.390;6.136;2023-05-12T03:48:27;101643.94;;;12.00;100.00
37202;BME280;37799;52.390;6.136;2023-05-12T03:50:53;101645.47;;;12.12;100.00
37202;BME280;37799;52.390;6.136;2023-05-12T03:53:18;101644.69;;;12.06;100.00
37202;BME280;37799;52.390;6.136;2023-05-12T03:55:43;101641.38;;;11.98;100.00
37202;BME280;37799;52.390;6.136;2023-05-12T03:58:09;101641.19;;;12.07;100.00
37202;BME280;37799;52.390;6.136;2023-05-12T04:00:34;101640.31;;;12.08;100.00
37202;BME280;37799;52.390;6.136;2023-05-12T04:02:59;101648.16;;;12.05;100.00
37202;BME280;37799;52.390;6.136;2023-05-12T04:05:25;101645.53;;;12.07;100.00
37202;BME280;37799;52.390;6.136;2023-05-12T04:07:50;101646.41;;;12.06;100.00
37202;BME280;37799;52.390;6.136;2023-05-12T04:10:16;101655.84;;;12.12;100.00
37202;BME280;37799;52.390;6.136;2023-05-12T04:12:41;101660.19;;;12.09;100.00
37202;BME280;37799;52.390;6.136;2023-05-12T04:15:07;101657.56;;;12.13;100.00
37202;BME280;37799;52.390;6.136;2023-05-12T04:17:33;101661.00;;;12.13;100.00
37202;BME280;37799;52.390;6.136;2023-05-12T04:19:58;101658.97;;;12.29;100.00
37202;BME280;37799;52.390;6.136;2023-05-12T04:22:24;101659.91;;;12.25;100.00
37202;BME280;37799;52.390;6.136;2023-05-12T04:24:50;101663.03;;;12.42;100.00
37202;BME280;37799;52.390;6.136;2023-05-12T04:27:15;101663.25;;;12.30;100.00
37202;BME280;37799;52.390;6.136;2023-05-12T04:29:40;101660.72;;;12.27;100.00
37202;BME280;37799;52.390;6.136;2023-05-12T04:32:06;101669.34;;;12.29;100.00
37202;BME280;37799;52.390;6.136;2023-05-12T04:34:31;101670.06;;;12.35;100.00
37202;BME280;37799;52.390;6.136;2023-05-12T04:36:57;101676.97;;;12.36;100.00
37202;BME280;37799;52.390;6.136;2023-05-12T04:39:22;101670.06;;;12.37;100.00
37202;BME280;37799;52.390;6.136;2023-05-12T04:41:47;101676.91;;;12.41;100.00
37202;BME280;37799;52.390;6.136;2023-05-12T04:44:13;101680.22;;;12.48;100.00
37202;BME280;37799;52.390;6.136;2023-05-12T04:46:38;101670.59;;;12.53;100.00
37202;BME280;37799;52.390;6.136;2023-05-12T04:49:03;101680.75;;;12.65;100.00
37202;BME280;37799;52.390;6.136;2023-05-12T04:51:29;101680.09;;;12.54;100.00
37202;BME280;37799;52.390;6.136;2023-05-12T04:53:54;101679.13;;;12.58;100.00
37202;BME280;37799;52.390;6.136;2023-05-12T04:56:19;101676.41;;;12.65;100.00
37202;BME280;37799;52.390;6.136;2023-05-12T04:58:46;101684.00;;;12.73;100.00
37202;BME280;37799;52.390;6.136;2023-05-12T05:01:11;101693.50;;;12.74;100.00
37202;BME280;37799;52.390;6.136;2023-05-12T05:03:38;101690.03;;;12.77;100.00
37202;BME280;37799;52.390;6.136;2023-05-12T05:06:03;101694.28;;;12.79;100.00
37202;BME280;37799;52.390;6.136;2023-05-12T05:08:29;101698.28;;;12.94;100.00
37202;BME280;37799;52.390;6.136;2023-05-12T05:10:54;101703.56;;;12.91;100.00
37202;BME280;37799;52.390;6.136;2023-05-12T05:13:20;101712.25;;;12.88;100.00
37202;BME280;37799;52.390;6.136;2023-05-12T05:15:51;101710.47;;;12.92;100.00
37202;BME280;37799;52.390;6.136;2023-05-12T05:18:17;101717.31;;;12.96;100.00
37202;BME280;37799;52.390;6.136;2023-05-12T05:20:43;101713.59;;;13.08;100.00
37202;BME280;37799;52.390;6.136;2023-05-12T05:23:09;101719.44;;;13.19;100.00
37202;BME280;37799;52.390;6.136;2023-05-12T05:25:35;101721.25;;;13.14;100.00
37202;BME280;37799;52.390;6.136;2023-05-12T05:28:00;101728.34;;;13.07;100.00
37202;BME280;37799;52.390;6.136;2023-05-12T05:30:26;101718.28;;;13.32;100.00
37202;BME280;37799;52.390;6.136;2023-05-12T05:32:51;101732.44;;;13.17;100.00
37202;BME280;37799;52.390;6.136;2023-05-12T05:35:17;101739.34;;;13.20;100.00
37202;BME280;37799;52.390;6.136;2023-05-12T05:37:42;101735.44;;;13.39;100.00
37202;BME280;37799;52.390;6.136;2023-05-12T05:40:08;101746.69;;;13.41;100.00
37202;BME280;37799;52.390;6.136;2023-05-12T05:42:34;101751.06;;;13.38;100.00
37202;BME280;37799;52.390;6.136;2023-05-12T05:44:59;101740.47;;;13.47;100.00
37202;BME280;37799;52.390;6.136;2023-05-12T05:47:24;101742.91;;;13.54;100.00
37202;BME280;37799;52.390;6.136;2023-05-12T05:49:50;101740.06;;;13.64;100.00
37202;BME280;37799;52.390;6.136;2023-05-12T05:52:15;101749.53;;;13.68;100.00
37202;BME280;37799;52.390;6.136;2023-05-12T05:54:40;101747.66;;;13.73;100.00
37202;BME280;37799;52.390;6.136;2023-05-12T05:57:06;101757.84;;;13.82;100.00
37202;BME280;37799;52.390;6.136;2023-05-12T05:59:31;101756.06;;;13.84;100.00
37202;BME280;37799;52.390;6.136;2023-05-12T06:01:57;101764.47;;;13.95;100.00
37202;BME280;37799;52.390;6.136;2023-05-12T06:04:22;101762.75;;;13.93;100.00
37202;BME280;37799;52.390;6.136;2023-05-12T06:06:47;101767.88;;;13.97;100.00
37202;BME280;37799;52.390;6.136;2023-05-12T06:09:13;101760.69;;;14.05;100.00
37202;BME280;37799;52.390;6.136;2023-05-12T06:11:39;101773.59;;;14.11;100.00
37202;BME280;37799;52.390;6.136;2023-05-12T06:14:04;101766.75;;;14.06;100.00
37202;BME280;37799;52.390;6.136;2023-05-12T06:16:30;101767.03;;;14.29;100.00
37202;BME280;37799;52.390;6.136;2023-05-12T06:18:55;101770.91;;;14.14;100.00
37202;BME280;37799;52.390;6.136;2023-05-12T06:21:20;101774.25;;;14.20;100.00
37202;BME280;37799;52.390;6.136;2023-05-12T06:23:46;101775.16;;;14.17;100.00
37202;BME280;37799;52.390;6.136;2023-05-12T06:26:11;101785.66;;;14.14;100.00
37202;BME280;37799;52.390;6.136;2023-05-12T06:28:37;101782.69;;;14.28;100.00
37202;BME280;37799;52.390;6.136;2023-05-12T06:31:05;101785.78;;;14.42;100.00
37202;BME280;37799;52.390;6.136;2023-05-12T06:33:31;101789.53;;;14.33;100.00
37202;BME280;37799;52.390;6.136;2023-05-12T06:35:57;101791.00;;;14.42;100.00
37202;BME280;37799;52.390;6.136;2023-05-12T06:38:22;101790.19;;;14.40;100.00
37202;BME280;37799;52.390;6.136;2023-05-12T06:40:47;101793.38;;;14.53;100.00
37202;BME280;37799;52.390;6.136;2023-05-12T06:43:13;101794.09;;;14.58;100.00
37202;BME280;37799;52.390;6.136;2023-05-12T06:45:38;101794.78;;;14.64;100.00
37202;BME280;37799;52.390;6.136;2023-05-12T06:48:04;101792.28;;;14.91;100.00
37202;BME280;37799;52.390;6.136;2023-05-12T06:50:30;101797.41;;;14.94;100.00
37202;BME280;37799;52.390;6.136;2023-05-12T06:52:55;101794.81;;;14.94;100.00
37202;BME280;37799;52.390;6.136;2023-05-12T06:55:21;101800.47;;;15.08;100.00
37202;BME280;37799;52.390;6.136;2023-05-12T06:57:46;101810.47;;;15.23;100.00
37202;BME280;37799;52.390;6.136;2023-05-12T07:00:12;101805.13;;;15.56;100.00
37202;BME280;37799;52.390;6.136;2023-05-12T07:02:38;101804.88;;;15.65;100.00
37202;BME280;37799;52.390;6.136;2023-05-12T07:05:03;101808.00;;;15.76;100.00
37202;BME280;37799;52.390;6.136;2023-05-12T07:07:29;101812.00;;;15.86;100.00
37202;BME280;37799;52.390;6.136;2023-05-12T07:09:54;101809.66;;;16.05;100.00
37202;BME280;37799;52.390;6.136;2023-05-12T07:12:20;101811.41;;;16.31;100.00
37202;BME280;37799;52.390;6.136;2023-05-12T07:14:46;101816.63;;;16.31;100.00
37202;BME280;37799;52.390;6.136;2023-05-12T07:17:11;101807.88;;;16.32;100.00
37202;BME280;37799;52.390;6.136;2023-05-12T07:19:36;101808.25;;;16.46;100.00
37202;BME280;37799;52.390;6.136;2023-05-12T07:22:03;101821.50;;;16.65;100.00
37202;BME280;37799;52.390;6.136;2023-05-12T07:24:29;101811.91;;;16.66;100.00
37202;BME280;37799;52.390;6.136;2023-05-12T07:26:54;101820.06;;;16.83;100.00
37202;BME280;37799;52.390;6.136;2023-05-12T07:29:20;101820.88;;;17.08;100.00
37202;BME280;37799;52.390;6.136;2023-05-12T07:31:46;101828.34;;;17.18;100.00
37202;BME280;37799;52.390;6.136;2023-05-12T07:34:12;101832.78;;;17.16;100.00
37202;BME280;37799;52.390;6.136;2023-05-12T07:36:37;101830.00;;;17.20;100.00
37202;BME280;37799;52.390;6.136;2023-05-12T07:39:02;101826.38;;;17.24;100.00
37202;BME280;37799;52.390;6.136;2023-05-12T07:41:28;101825.63;;;17.21;100.00
37202;BME280;37799;52.390;6.136;2023-05-12T07:43:53;101821.38;;;17.40;100.00
37202;BME280;37799;52.390;6.136;2023-05-12T07:46:19;101828.84;;;17.51;100.00
37202;BME280;37799;52.390;6.136;2023-05-12T07:48:44;101839.44;;;17.69;100.00
37202;BME280;37799;52.390;6.136;2023-05-12T07:51:10;101833.06;;;17.77;100.00
37202;BME280;37799;52.390;6.136;2023-05-12T07:53:35;101835.44;;;17.83;100.00
37202;BME280;37799;52.390;6.136;2023-05-12T07:56:01;101834.69;;;18.01;100.00
37202;BME280;37799;52.390;6.136;2023-05-12T07:58:26;101842.84;;;18.15;100.00
37202;BME280;37799;52.390;6.136;2023-05-12T08:00:52;101847.56;;;18.27;100.00
37202;BME280;37799;52.390;6.136;2023-05-12T08:03:19;101838.38;;;18.17;100.00
37202;BME280;37799;52.390;6.136;2023-05-12T08:05:44;101849.69;;;18.40;100.00
37202;BME280;37799;52.390;6.136;2023-05-12T08:08:09;101852.72;;;18.09;100.00
37202;BME280;37799;52.390;6.136;2023-05-12T08:10:41;101855.81;;;17.98;100.00
37202;BME280;37799;52.390;6.136;2023-05-12T08:13:06;101860.50;;;17.90;100.00
37202;BME280;37799;52.390;6.136;2023-05-12T08:15:32;101859.94;;;17.82;100.00
37202;BME280;37799;52.390;6.136;2023-05-12T08:17:57;101857.44;;;17.55;100.00
37202;BME280;37799;52.390;6.136;2023-05-12T08:20:23;101864.50;;;17.53;100.00
37202;BME280;37799;52.390;6.136;2023-05-12T08:22:48;101869.69;;;17.33;100.00
37202;BME280;37799;52.390;6.136;2023-05-12T08:25:15;101870.75;;;17.27;100.00
37202;BME280;37799;52.390;6.136;2023-05-12T08:27:40;101869.88;;;17.50;100.00
37202;BME280;37799;52.390;6.136;2023-05-12T08:30:06;101866.84;;;17.61;100.00
37202;BME280;37799;52.390;6.136;2023-05-12T08:32:32;101869.97;;;17.92;100.00
37202;BME280;37799;52.390;6.136;2023-05-12T08:34:59;101870.84;;;17.93;100.00
37202;BME280;37799;52.390;6.136;2023-05-12T08:37:25;101871.91;;;18.09;100.00
37202;BME280;37799;52.390;6.136;2023-05-12T08:39:50;101876.69;;;18.42;100.00
37202;BME280;37799;52.390;6.136;2023-05-12T08:42:41;101878.69;;;18.77;100.00
37202;BME280;37799;52.390;6.136;2023-05-12T08:45:07;101878.78;;;19.15;100.00
37202;BME280;37799;52.390;6.136;2023-05-12T08:47:34;101890.31;;;19.69;100.00
37202;BME280;37799;52.390;6.136;2023-05-12T08:50:02;101887.44;;;19.92;100.00
37202;BME280;37799;52.390;6.136;2023-05-12T08:52:30;101887.66;;;20.05;100.00
37202;BME280;37799;52.390;6.136;2023-05-12T08:54:57;101887.78;;;20.21;100.00
37202;BME280;37799;52.390;6.136;2023-05-12T08:57:22;101887.78;;;20.21;100.00
37202;BME280;37799;52.390;6.136;2023-05-12T08:59:49;101883.44;;;20.37;100.00
37202;BME280;37799;52.390;6.136;2023-05-12T09:02:23;101890.81;;;20.65;100.00
37202;BME280;37799;52.390;6.136;2023-05-12T09:04:50;101899.25;;;20.89;100.00
37202;BME280;37799;52.390;6.136;2023-05-12T09:07:20;101893.00;;;21.07;100.00
37202;BME280;37799;52.390;6.136;2023-05-12T09:09:53;101900.09;;;21.23;100.00
37202;BME280;37799;52.390;6.136;2023-05-12T09:12:24;101899.56;;;21.49;100.00
37202;BME280;37799;52.390;6.136;2023-05-12T09:15:01;101899.34;;;21.03;100.00
37202;BME280;37799;52.390;6.136;2023-05-12T09:17:27;101895.13;;;21.16;100.00
37202;BME280;37799;52.390;6.136;2023-05-12T09:19:53;101898.53;;;21.18;100.00
37202;BME280;37799;52.390;6.136;2023-05-12T09:22:27;101888.41;;;21.60;100.00
37202;BME280;37799;52.390;6.136;2023-05-12T09:24:52;101894.09;;;21.84;100.00
37202;BME280;37799;52.390;6.136;2023-05-12T09:27:28;101905.75;;;21.79;100.00
37202;BME280;37799;52.390;6.136;2023-05-12T09:29:54;101901.50;;;21.93;100.00
37202;BME280;37799;52.390;6.136;2023-05-12T09:32:30;101907.97;;;22.03;100.00
37202;BME280;37799;52.390;6.136;2023-05-12T09:35:00;101912.22;;;22.05;100.00
37202;BME280;37799;52.390;6.136;2023-05-12T09:37:30;101912.06;;;21.93;100.00
37202;BME280;37799;52.390;6.136;2023-05-12T09:40:00;101919.44;;;21.86;100.00
37202;BME280;37799;52.390;6.136;2023-05-12T09:42:28;101916.88;;;21.85;100.00
37202;BME280;37799;52.390;6.136;2023-05-12T09:44:59;101915.16;;;21.99;100.00
37202;BME280;37799;52.390;6.136;2023-05-12T09:47:32;101925.16;;;21.78;100.00
37202;BME280;37799;52.390;6.136;2023-05-12T09:49:57;101916.06;;;21.68;100.00
37202;BME280;37799;52.390;6.136;2023-05-12T09:52:23;101915.47;;;21.63;100.00
37202;BME280;37799;52.390;6.136;2023-05-12T09:54:48;101915.78;;;21.57;100.00
37202;BME280;37799;52.390;6.136;2023-05-12T09:57:17;101912.91;;;21.93;100.00
37202;BME280;37799;52.390;6.136;2023-05-12T09:59:45;101916.09;;;22.30;100.00
37202;BME280;37799;52.390;6.136;2023-05-12T10:02:12;101916.50;;;22.68;100.00
37202;BME280;37799;52.390;6.136;2023-05-12T10:04:49;101922.13;;;23.20;100.00
37202;BME280;37799;52.390;6.136;2023-05-12T10:07:20;101924.66;;;23.36;100.00
37202;BME280;37799;52.390;6.136;2023-05-12T10:09:47;101922.47;;;23.57;100.00
37202;BME280;37799;52.390;6.136;2023-05-12T10:12:13;101927.38;;;24.04;100.00
37202;BME280;37799;52.390;6.136;2023-05-12T10:14:39;101919.03;;;24.37;100.00
37202;BME280;37799;52.390;6.136;2023-05-12T10:17:05;101928.47;;;24.15;100.00
37202;BME280;37799;52.390;6.136;2023-05-12T10:19:31;101922.34;;;24.14;100.00
37202;BME280;37799;52.390;6.136;2023-05-12T10:21:57;101934.56;;;24.02;100.00
37202;BME280;37799;52.390;6.136;2023-05-12T10:24:26;101921.94;;;24.73;100.00
37202;BME280;37799;52.390;6.136;2023-05-12T10:26:54;101925.88;;;24.92;100.00
37202;BME280;37799;52.390;6.136;2023-05-12T10:29:24;101926.13;;;25.02;100.00
37202;BME280;37799;52.390;6.136;2023-05-12T10:31:55;101930.31;;;24.92;95.98
37202;BME280;37799;52.390;6.136;2023-05-12T10:34:21;101927.13;;;24.61;99.26
37202;BME280;37799;52.390;6.136;2023-05-12T10:36:48;101926.22;;;25.13;96.59
37202;BME280;37799;52.390;6.136;2023-05-12T10:39:14;101928.00;;;25.25;98.55
37202;BME280;37799;52.390;6.136;2023-05-12T10:41:40;101929.16;;;25.21;93.92
37202;BME280;37799;52.390;6.136;2023-05-12T10:44:06;101926.94;;;24.77;96.81
37202;BME280;37799;52.390;6.136;2023-05-12T10:46:32;101933.91;;;24.26;99.99
37202;BME280;37799;52.390;6.136;2023-05-12T10:48:59;101930.66;;;23.81;94.71
37202;BME280;37799;52.390;6.136;2023-05-12T10:51:32;101927.94;;;23.54;100.00
37202;BME280;37799;52.390;6.136;2023-05-12T10:54:06;101928.06;;;23.38;100.00
37202;BME280;37799;52.390;6.136;2023-05-12T10:59:10;101932.41;;;23.25;96.65
37202;BME280;37799;52.390;6.136;2023-05-12T11:01:37;101929.72;;;23.53;100.00
37202;BME280;37799;52.390;6.136;2023-05-12T11:04:13;101930.28;;;23.87;83.53
37202;BME280;37799;52.390;6.136;2023-05-12T11:06:41;101921.28;;;24.17;82.38
37202;BME280;37799;52.390;6.136;2023-05-12T11:09:07;101929.22;;;24.44;82.27
37202;BME280;37799;52.390;6.136;2023-05-12T11:11:32;101928.63;;;25.42;88.21
37202;BME280;37799;52.390;6.136;2023-05-12T11:13:59;101934.78;;;26.51;73.96
37202;BME280;37799;52.390;6.136;2023-05-12T11:16:24;101931.41;;;27.06;72.98
37202;BME280;37799;52.390;6.136;2023-05-12T11:19:19;101930.75;;;27.58;64.42
37202;BME280;37799;52.390;6.136;2023-05-12T11:21:45;101932.06;;;27.86;63.04
37202;BME280;37799;52.390;6.136;2023-05-12T11:24:10;101930.69;;;27.26;65.84
37202;BME280;37799;52.390;6.136;2023-05-12T11:26:35;101935.28;;;27.36;63.05
37202;BME280;37799;52.390;6.136;2023-05-12T11:29:02;101940.09;;;27.08;51.35
37202;BME280;37799;52.390;6.136;2023-05-12T11:31:28;101933.34;;;27.15;52.81
37202;BME280;37799;52.390;6.136;2023-05-12T11:34:04;101929.78;;;26.70;50.12
37202;BME280;37799;52.390;6.136;2023-05-12T11:36:39;101934.34;;;26.57;53.92
37202;BME280;37799;52.390;6.136;2023-05-12T11:39:04;101932.63;;;26.56;56.48
37202;BME280;37799;52.390;6.136;2023-05-12T11:41:31;101928.28;;;26.66;59.14
37202;BME280;37799;52.390;6.136;2023-05-12T11:43:57;101931.25;;;26.85;55.17
37202;BME280;37799;52.390;6.136;2023-05-12T11:46:26;101926.59;;;26.65;59.94
37202;BME280;37799;52.390;6.136;2023-05-12T11:48:56;101929.31;;;26.41;55.83
37202;BME280;37799;52.390;6.136;2023-05-12T11:51:22;101930.59;;;26.35;63.40
37202;BME280;37799;52.390;6.136;2023-05-12T11:53:48;101929.69;;;26.36;60.21
37202;BME280;37799;52.390;6.136;2023-05-12T11:56:18;101931.06;;;26.64;54.73
37202;BME280;37799;52.390;6.136;2023-05-12T11:58:55;101922.56;;;26.37;59.51
37202;BME280;37799;52.390;6.136;2023-05-12T12:01:22;101922.63;;;26.59;60.17
37202;BME280;37799;52.390;6.136;2023-05-12T12:03:49;101922.84;;;27.25;60.69
37202;BME280;37799;52.390;6.136;2023-05-12T12:06:15;101925.31;;;27.82;59.16
37202;BME280;37799;52.390;6.136;2023-05-12T12:11:17;101919.66;;;27.53;51.94
37202;BME280;37799;52.390;6.136;2023-05-12T12:13:47;101919.66;;;26.86;55.10
37202;BME280;37799;52.390;6.136;2023-05-12T12:16:14;101922.66;;;26.82;56.03
37202;BME280;37799;52.390;6.136;2023-05-12T12:18:39;101923.81;;;27.13;55.78
37202;BME280;37799;52.390;6.136;2023-05-12T12:21:05;101926.53;;;27.56;53.82
37202;BME280;37799;52.390;6.136;2023-05-12T12:23:30;101933.44;;;27.70;54.95
37202;BME280;37799;52.390;6.136;2023-05-12T12:25:55;101926.44;;;27.69;58.35
37202;BME280;37799;52.390;6.136;2023-05-12T12:28:21;101934.41;;;27.69;59.47
37202;BME280;37799;52.390;6.136;2023-05-12T12:30:46;101936.63;;;27.96;60.31
37202;BME280;37799;52.390;6.136;2023-05-12T12:33:11;101933.69;;;28.10;55.45
37202;BME280;37799;52.390;6.136;2023-05-12T12:35:37;101929.28;;;28.20;47.90
37202;BME280;37799;52.390;6.136;2023-05-12T12:38:02;101939.94;;;28.20;46.60
37202;BME280;37799;52.390;6.136;2023-05-12T12:40:27;101933.09;;;27.74;45.36
37202;BME280;37799;52.390;6.136;2023-05-12T12:42:52;101924.53;;;27.26;49.49